Schedule Details

Flight Number: CPX260
Departure: General Edward Lawrence Logan International Airport (KBOS) at N/A
Arrival: Washington Dulles International Airport (KIAD) at N/A
Route: BLZZR4 BLZZR BAF HYPER7


Current Weather Information
KBOS 180654Z 19005KT 1/2SM R04R/3500V5000FT SN FZFG VV006 M02/M03 A2999 RMK AO2 SLP154 P0010 T10171033
KIAD 180652Z 19008KT 10SM -RA BKN007 OVC050 02/01 A2980 RMK AO2 SLP093 P0005 T00220011

Route Map